DAL3104 KATL-KSRQ
Flight info
| Callsign | DAL3104 |
|---|---|
| Flight time | N/A |
| Altitude | 38000 |
| Route | BANNG3 LUCKK HONID BANGZ2 |
| Aircraft | A319/M-SDE3FGHIRWY/LB1 |
Departure
| Time | 2026-05-07 14:04 |
|---|---|
| Airport | Hartsfield Jackson Atlanta International Airport (KATL) |
Arrival
| Time | N/A |
|---|---|
| Airport | Sarasota Bradenton International Airport (KSRQ) |
| Time | Latitude | Longitude | Altitude | Speed | Heading |
|---|---|---|---|---|---|
| 2026-05-07 13:50 | 33.63876 | -84.43636 | 1035 ft | 0 kts | 90° |
| 2026-05-07 13:52 | 33.63877 | -84.43656 | 1035 ft | 4 kts | 91° |
| 2026-05-07 13:52 | 33.63878 | -84.43687 | 1035 ft | 4 kts | 103° |
| 2026-05-07 13:52 | 33.63888 | -84.43714 | 1035 ft | 4 kts | 142° |
| 2026-05-07 13:52 | 33.63903 | -84.43723 | 1035 ft | 0 kts | 180° |
| 2026-05-07 13:55 | 33.63882 | -84.43723 | 1035 ft | 6 kts | 180° |
| 2026-05-07 13:55 | 33.63822 | -84.43723 | 1035 ft | 11 kts | 180° |
| 2026-05-07 13:55 | 33.63756 | -84.43723 | 1035 ft | 8 kts | 180° |
| 2026-05-07 13:55 | 33.63708 | -84.43723 | 1036 ft | 7 kts | 178° |
| 2026-05-07 13:56 | 33.63664 | -84.43684 | 1036 ft | 10 kts | 111° |
| 2026-05-07 13:56 | 33.63665 | -84.43611 | 1035 ft | 7 kts | 89° |
| 2026-05-07 13:56 | 33.63665 | -84.43550 | 1035 ft | 8 kts | 90° |
| 2026-05-07 13:56 | 33.63665 | -84.43482 | 1030 ft | 9 kts | 90° |
| 2026-05-07 13:57 | 33.63665 | -84.43405 | 1035 ft | 10 kts | 90° |
| 2026-05-07 13:57 | 33.63665 | -84.43321 | 1035 ft | 10 kts | 90° |
| 2026-05-07 13:57 | 33.63665 | -84.43232 | 1035 ft | 11 kts | 90° |
| 2026-05-07 13:57 | 33.63665 | -84.43136 | 1035 ft | 12 kts | 90° |
| 2026-05-07 13:58 | 33.63665 | -84.43036 | 1035 ft | 11 kts | 90° |
| 2026-05-07 13:58 | 33.63665 | -84.42950 | 1035 ft | 9 kts | 90° |
| 2026-05-07 13:58 | 33.63665 | -84.42868 | 1035 ft | 10 kts | 90° |
| 2026-05-07 13:58 | 33.63665 | -84.42777 | 1035 ft | 12 kts | 91° |
| 2026-05-07 13:59 | 33.63657 | -84.42663 | 1036 ft | 16 kts | 90° |
| 2026-05-07 13:59 | 33.63657 | -84.42514 | 1036 ft | 20 kts | 90° |
| 2026-05-07 13:59 | 33.63656 | -84.42330 | 1036 ft | 24 kts | 91° |
| 2026-05-07 13:59 | 33.63629 | -84.42146 | 1036 ft | 22 kts | 121° |
| 2026-05-07 14:00 | 33.63583 | -84.41989 | 1036 ft | 19 kts | 97° |
| 2026-05-07 14:00 | 33.63584 | -84.41840 | 1035 ft | 17 kts | 88° |
| 2026-05-07 14:00 | 33.63585 | -84.41711 | 1035 ft | 14 kts | 92° |
| 2026-05-07 14:00 | 33.63582 | -84.41603 | 1035 ft | 12 kts | 91° |
| 2026-05-07 14:01 | 33.63581 | -84.41497 | 1034 ft | 14 kts | 90° |
| 2026-05-07 14:01 | 33.63581 | -84.41376 | 1034 ft | 15 kts | 90° |
| 2026-05-07 14:01 | 33.63582 | -84.41239 | 1035 ft | 19 kts | 91° |
| 2026-05-07 14:01 | 33.63582 | -84.41065 | 1035 ft | 21 kts | 90° |
| 2026-05-07 14:02 | 33.63578 | -84.40945 | 1035 ft | 0 kts | 109° |
| 2026-05-07 14:02 | 33.63577 | -84.40941 | 1035 ft | 2 kts | 109° |
| 2026-05-07 14:02 | 33.63563 | -84.40917 | 1036 ft | 6 kts | 143° |
| 2026-05-07 14:03 | 33.63492 | -84.40915 | 1036 ft | 14 kts | 191° |
| 2026-05-07 14:03 | 33.63474 | -84.40965 | 1036 ft | 5 kts | 268° |
| 2026-05-07 14:03 | 33.63472 | -84.41155 | 1034 ft | 59 kts | 270° |
| 2026-05-07 14:03 | 33.63474 | -84.41939 | 1037 ft | 127 kts | 270° |
| 2026-05-07 14:04 | 33.63438 | -84.43193 | 1195 ft | 167 kts | 268° |
| 2026-05-07 14:04 | 33.63403 | -84.44619 | 1882 ft | 170 kts | 275° |
| 2026-05-07 14:04 | 33.63407 | -84.46034 | 2662 ft | 169 kts | 272° |
| 2026-05-07 14:04 | 33.63418 | -84.47499 | 3186 ft | 185 kts | 270° |
| 2026-05-07 14:05 | 33.63427 | -84.49151 | 3597 ft | 211 kts | 269° |
| 2026-05-07 14:05 | 33.63432 | -84.51013 | 4122 ft | 235 kts | 268° |
| 2026-05-07 14:05 | 33.63436 | -84.53009 | 5014 ft | 242 kts | 268° |
| 2026-05-07 14:05 | 33.63442 | -84.55040 | 6080 ft | 244 kts | 269° |
| 2026-05-07 14:06 | 33.63449 | -84.57083 | 7098 ft | 245 kts | 268° |
| 2026-05-07 14:06 | 33.63451 | -84.59116 | 8005 ft | 252 kts | 269° |
| 2026-05-07 14:06 | 33.63451 | -84.61260 | 8993 ft | 253 kts | 269° |
| 2026-05-07 14:06 | 33.63419 | -84.63316 | 10155 ft | 251 kts | 264° |
| 2026-05-07 14:07 | 33.62869 | -84.65325 | 11004 ft | 260 kts | 243° |
| 2026-05-07 14:07 | 33.61650 | -84.66974 | 11986 ft | 272 kts | 224° |
| 2026-05-07 14:07 | 33.60013 | -84.68166 | 12962 ft | 277 kts | 218° |
| 2026-05-07 14:07 | 33.58221 | -84.69113 | 13885 ft | 291 kts | 205° |
| 2026-05-07 14:08 | 33.56155 | -84.69418 | 14678 ft | 310 kts | 189° |
| 2026-05-07 14:08 | 33.53960 | -84.69079 | 15489 ft | 321 kts | 182° |
| 2026-05-07 14:08 | 33.51746 | -84.68654 | 16275 ft | 324 kts | 183° |
| 2026-05-07 14:08 | 33.49505 | -84.68223 | 17064 ft | 327 kts | 184° |
| 2026-05-07 14:09 | 33.47243 | -84.67792 | 17817 ft | 331 kts | 184° |
| 2026-05-07 14:09 | 33.44956 | -84.67358 | 18516 ft | 334 kts | 184° |
| 2026-05-07 14:09 | 33.42637 | -84.66879 | 19146 ft | 343 kts | 180° |
| 2026-05-07 14:09 | 33.40305 | -84.65930 | 19516 ft | 370 kts | 168° |
| 2026-05-07 14:10 | 33.37878 | -84.64658 | 19680 ft | 389 kts | 167° |
| 2026-05-07 14:10 | 33.35408 | -84.63331 | 20125 ft | 397 kts | 167° |
| 2026-05-07 14:10 | 33.32879 | -84.61949 | 20698 ft | 402 kts | 167° |
| 2026-05-07 14:10 | 33.30295 | -84.60530 | 21335 ft | 405 kts | 167° |
| 2026-05-07 14:11 | 33.27724 | -84.59119 | 21980 ft | 408 kts | 167° |
| 2026-05-07 14:11 | 33.25137 | -84.57710 | 22585 ft | 410 kts | 167° |
| 2026-05-07 14:11 | 33.22522 | -84.56295 | 23180 ft | 413 kts | 167° |
| 2026-05-07 14:11 | 33.19890 | -84.54879 | 23719 ft | 416 kts | 167° |
| 2026-05-07 14:12 | 33.17240 | -84.53459 | 24224 ft | 419 kts | 167° |
| 2026-05-07 14:12 | 33.14571 | -84.52031 | 24709 ft | 421 kts | 167° |
| 2026-05-07 14:12 | 33.11891 | -84.50597 | 25188 ft | 424 kts | 167° |
| 2026-05-07 14:12 | 33.09196 | -84.49154 | 25666 ft | 426 kts | 167° |
| 2026-05-07 14:13 | 33.06485 | -84.47701 | 26135 ft | 428 kts | 167° |
| 2026-05-07 14:13 | 33.03760 | -84.46240 | 26596 ft | 431 kts | 167° |
| 2026-05-07 14:13 | 33.01017 | -84.44771 | 27012 ft | 434 kts | 166° |
| 2026-05-07 14:13 | 32.98242 | -84.43357 | 27450 ft | 431 kts | 171° |
| 2026-05-07 14:14 | 32.95420 | -84.42432 | 27901 ft | 421 kts | 180° |
| 2026-05-07 14:14 | 32.92551 | -84.42055 | 28360 ft | 411 kts | 188° |
| 2026-05-07 14:14 | 32.89659 | -84.42002 | 28824 ft | 412 kts | 189° |
| 2026-05-07 14:14 | 32.86784 | -84.41954 | 29268 ft | 414 kts | 189° |
| 2026-05-07 14:15 | 32.83894 | -84.41902 | 29726 ft | 417 kts | 189° |
| 2026-05-07 14:15 | 32.81017 | -84.41846 | 30133 ft | 420 kts | 189° |
| 2026-05-07 14:15 | 32.78091 | -84.41787 | 30513 ft | 421 kts | 189° |
| 2026-05-07 14:15 | 32.75149 | -84.41724 | 30854 ft | 423 kts | 188° |
| 2026-05-07 14:16 | 32.72200 | -84.41662 | 31187 ft | 426 kts | 188° |
| 2026-05-07 14:16 | 32.69223 | -84.41603 | 31559 ft | 428 kts | 188° |
| 2026-05-07 14:16 | 32.66234 | -84.41545 | 31947 ft | 429 kts | 188° |
| 2026-05-07 14:16 | 32.63246 | -84.41490 | 32319 ft | 430 kts | 188° |
| 2026-05-07 14:17 | 32.60255 | -84.41431 | 32783 ft | 429 kts | 188° |
| 2026-05-07 14:17 | 32.57274 | -84.41365 | 33346 ft | 426 kts | 188° |
| 2026-05-07 14:17 | 32.54320 | -84.41297 | 33892 ft | 423 kts | 188° |
| 2026-05-07 14:17 | 32.51387 | -84.41231 | 34350 ft | 421 kts | 188° |
| 2026-05-07 14:18 | 32.48463 | -84.41167 | 34714 ft | 420 kts | 188° |
| 2026-05-07 14:18 | 32.45525 | -84.41107 | 34998 ft | 423 kts | 188° |
| 2026-05-07 14:18 | 32.42591 | -84.41049 | 35327 ft | 423 kts | 188° |
| 2026-05-07 14:18 | 32.39643 | -84.40994 | 35685 ft | 422 kts | 188° |
| 2026-05-07 14:19 | 32.36702 | -84.40941 | 36067 ft | 422 kts | 189° |
| 2026-05-07 14:19 | 32.33774 | -84.40886 | 36448 ft | 420 kts | 189° |
| 2026-05-07 14:19 | 32.30857 | -84.40831 | 36815 ft | 419 kts | 189° |
| 2026-05-07 14:19 | 32.27935 | -84.40778 | 36934 ft | 418 kts | 189° |
| 2026-05-07 14:20 | 32.25052 | -84.40719 | 36966 ft | 412 kts | 189° |
| 2026-05-07 14:20 | 32.19353 | -84.40601 | 36967 ft | 409 kts | 188° |
| 2026-05-07 14:21 | 32.13649 | -84.40493 | 36972 ft | 410 kts | 188° |
| 2026-05-07 14:21 | 32.07946 | -84.40381 | 36972 ft | 410 kts | 188° |
| 2026-05-07 14:22 | 32.02235 | -84.40263 | 36978 ft | 410 kts | 188° |
| 2026-05-07 14:22 | 31.96524 | -84.40143 | 36981 ft | 410 kts | 188° |
| 2026-05-07 14:23 | 31.90841 | -84.40034 | 36947 ft | 412 kts | 187° |
| 2026-05-07 14:23 | 31.85082 | -84.39917 | 36946 ft | 415 kts | 187° |
| 2026-05-07 14:24 | 31.79289 | -84.39800 | 36955 ft | 418 kts | 187° |
| 2026-05-07 14:24 | 31.73458 | -84.39689 | 36963 ft | 419 kts | 187° |
| 2026-05-07 14:25 | 31.67615 | -84.39574 | 36964 ft | 420 kts | 187° |
| 2026-05-07 14:25 | 31.61758 | -84.39478 | 36962 ft | 421 kts | 188° |
| 2026-05-07 14:26 | 31.55897 | -84.39491 | 36968 ft | 421 kts | 188° |
| 2026-05-07 14:26 | 31.50028 | -84.39534 | 36979 ft | 422 kts | 188° |
| 2026-05-07 14:27 | 31.44160 | -84.39557 | 36985 ft | 422 kts | 188° |
| 2026-05-07 14:27 | 31.38290 | -84.39555 | 36953 ft | 422 kts | 188° |
| 2026-05-07 14:28 | 31.32405 | -84.39560 | 36968 ft | 423 kts | 188° |
| 2026-05-07 14:28 | 31.26507 | -84.39567 | 36983 ft | 424 kts | 188° |
| 2026-05-07 14:29 | 31.20601 | -84.39573 | 37000 ft | 425 kts | 188° |
| 2026-05-07 14:29 | 31.14687 | -84.39585 | 37020 ft | 425 kts | 188° |
| 2026-05-07 14:30 | 31.08768 | -84.39603 | 37010 ft | 426 kts | 188° |
| 2026-05-07 14:30 | 31.02830 | -84.39613 | 37026 ft | 427 kts | 188° |
| 2026-05-07 14:31 | 30.96881 | -84.39615 | 37033 ft | 427 kts | 188° |
| 2026-05-07 14:31 | 30.90974 | -84.39621 | 37014 ft | 428 kts | 188° |
| 2026-05-07 14:32 | 30.85024 | -84.39625 | 37017 ft | 428 kts | 188° |
| 2026-05-07 14:32 | 30.79062 | -84.39636 | 37008 ft | 428 kts | 188° |
| 2026-05-07 14:33 | 30.73568 | -84.39652 | 37014 ft | 429 kts | 188° |
| 2026-05-07 14:33 | 30.67599 | -84.39652 | 37021 ft | 430 kts | 188° |